Time;durP1;ratioP1;P1;durP2;ratioP2;P2;SDS_P1;SDS_P2;PMS_P1;PMS_P2;Temp;Humidity;BMP_temperature;BMP_pressure;BME280_temperature;BME280_humidity;BME280_pressure;Samples;Min_cycle;Max_cycle;Signal;HPM_P1;HPM_P2
2022/09/15 00:01:08;;;;;;;;;;;21.60;83.60;;;;;;5079046;28;19909;-55
2022/09/15 00:03:33;;;;;;;;;;;21.60;83.70;;;;;;5096989;28;20070;-52
2022/09/15 00:05:59;;;;;;;;;;;21.60;83.60;;;;;;5097123;28;19955;-54
2022/09/15 00:08:24;;;;;;;;;;;21.60;83.60;;;;;;5097367;28;19908;-57
2022/09/15 00:10:54;;;;;;;;;;;21.60;84.10;;;;;;5097205;28;19919;-57
2022/09/15 00:13:20;;;;;;;;;;;21.60;83.70;;;;;;5096948;28;19912;-55
2022/09/15 00:15:46;;;;;;;;;;;21.60;83.60;;;;;;5096948;28;19912;-52
2022/09/15 00:18:11;;;;;;;;;;;21.60;83.60;;;;;;5097572;28;19958;-55
2022/09/15 00:20:41;;;;;;;;;;;21.60;83.60;;;;;;5097476;28;20263;-55
2022/09/15 00:23:07;;;;;;;;;;;21.60;83.60;;;;;;5078909;28;19908;-55
2022/09/15 00:25:32;;;;;;;;;;;21.60;83.60;;;;;;5078942;28;20003;-55
2022/09/15 00:27:58;;;;;;;;;;;21.60;83.60;;;;;;5096709;28;20371;-57
2022/09/15 00:30:23;;;;;;;;;;;21.60;83.60;;;;;;5096929;28;19916;-56
2022/09/15 00:32:49;;;;;;;;;;;21.60;83.60;;;;;;5096698;28;19912;-56
2022/09/15 00:35:14;;;;;;;;;;;21.60;83.60;;;;;;5096916;28;20060;-55
2022/09/15 00:37:40;;;;;;;;;;;21.60;83.70;;;;;;5078755;28;19920;-54
2022/09/15 00:40:05;;;;;;;;;;;21.60;83.70;;;;;;5096574;28;19908;-53
2022/09/15 00:42:31;;;;;;;;;;;21.60;83.70;;;;;;5096457;28;20007;-55
2022/09/15 00:44:58;;;;;;;;;;;21.60;83.60;;;;;;5095793;28;20331;-54
2022/09/15 00:47:35;;;;;;;;;;;21.60;83.60;;;;;;5078482;28;20267;-54
2022/09/15 00:50:03;;;;;;;;;;;21.60;83.60;;;;;;5096623;28;19912;-54
2022/09/15 00:52:38;;;;;;;;;;;21.60;83.60;;;;;;5078376;28;19966;-54
2022/09/15 00:55:10;;;;;;;;;;;21.60;83.60;;;;;;5096294;28;19991;-55
2022/09/15 00:57:39;;;;;;;;;;;21.60;83.70;;;;;;5096613;28;19908;-55
2022/09/15 01:00:08;;;;;;;;;;;21.60;83.70;;;;;;5096467;28;19912;-56
2022/09/15 01:02:34;;;;;;;;;;;21.60;83.70;;;;;;5078278;28;19943;-53
2022/09/15 01:05:01;;;;;;;;;;;21.60;83.70;;;;;;5096800;28;19928;-52
2022/09/15 01:07:49;;;;;;;;;;;21.60;83.60;;;;;;5078089;28;19908;-54
2022/09/15 01:10:21;;;;;;;;;;;21.60;83.70;;;;;;5096312;28;19912;-57
2022/09/15 01:12:46;;;;;;;;;;;21.60;83.70;;;;;;5096560;28;19948;-51
2022/09/15 01:15:12;;;;;;;;;;;21.60;83.60;;;;;;5096152;28;19908;-57
2022/09/15 01:17:53;;;;;;;;;;;21.60;83.70;;;;;;5096412;28;19947;-56
2022/09/15 01:20:38;;;;;;;;;;;21.60;83.70;;;;;;5096019;28;19915;-55
2022/09/15 01:23:04;;;;;;;;;;;21.60;83.70;;;;;;5077996;28;19908;-56
2022/09/15 01:25:38;;;;;;;;;;;21.60;83.60;;;;;;5095917;28;19908;-54
2022/09/15 01:28:03;;;;;;;;;;;21.60;83.70;;;;;;5095985;28;19909;-53
2022/09/15 01:30:34;;;;;;;;;;;21.60;83.70;;;;;;5095792;28;19934;-55
2022/09/15 01:33:16;;;;;;;;;;;21.60;83.70;;;;;;5095753;28;19915;-52
2022/09/15 01:35:41;;;;;;;;;;;21.60;83.60;;;;;;5095464;28;20383;-55
2022/09/15 01:38:10;;;;;;;;;;;21.60;83.70;;;;;;5095407;28;19915;-56
2022/09/15 01:40:38;;;;;;;;;;;21.60;83.70;;;;;;5095460;28;19915;-50
2022/09/15 01:43:04;;;;;;;;;;;21.60;83.70;;;;;;5095262;28;19908;-54
2022/09/15 01:45:32;;;;;;;;;;;21.60;83.70;;;;;;5077276;28;20370;-57
2022/09/15 01:47:59;;;;;;;;;;;21.60;84.20;;;;;;5077200;28;19909;-56
2022/09/15 01:50:27;;;;;;;;;;;21.60;83.80;;;;;;5095313;28;19913;-57
2022/09/15 01:52:55;;;;;;;;;;;21.60;83.70;;;;;;5095150;28;20448;-53
2022/09/15 01:55:28;;;;;;;;;;;21.60;83.70;;;;;;5094120;28;20375;-56
2022/09/15 01:57:53;;;;;;;;;;;21.60;83.80;;;;;;5095345;28;19908;-55
2022/09/15 02:00:19;;;;;;;;;;;21.60;83.80;;;;;;5076832;28;19915;-52
2022/09/15 02:02:55;;;;;;;;;;;21.60;83.70;;;;;;5094860;28;19915;-55
2022/09/15 02:05:41;;;;;;;;;;;21.60;83.80;;;;;;5094908;28;20078;-53
2022/09/15 02:08:09;;;;;;;;;;;21.60;83.80;;;;;;5094450;28;20248;-54
2022/09/15 02:10:50;;;;;;;;;;;21.60;83.80;;;;;;5076802;28;19912;-55
2022/09/15 02:13:19;;;;;;;;;;;21.60;83.80;;;;;;5095329;28;19998;-54
2022/09/15 02:15:50;;;;;;;;;;;21.60;83.80;;;;;;5094534;28;19908;-54
2022/09/15 02:18:44;;;;;;;;;;;21.60;83.90;;;;;;5094954;28;19908;-57
2022/09/15 02:21:18;;;;;;;;;;;21.60;83.90;;;;;;5074034;28;19965;-56
2022/09/15 02:23:49;;;;;;;;;;;21.60;83.90;;;;;;5076706;28;19908;-55
2022/09/15 02:26:18;;;;;;;;;;;21.60;83.90;;;;;;5094554;28;20405;-57
2022/09/15 02:28:45;;;;;;;;;;;21.60;83.90;;;;;;5094709;28;20345;-53
2022/09/15 02:31:13;;;;;;;;;;;21.60;83.90;;;;;;5095018;28;19912;-55
2022/09/15 02:33:43;;;;;;;;;;;21.60;83.90;;;;;;5094428;28;19931;-55
2022/09/15 02:36:09;;;;;;;;;;;21.60;83.90;;;;;;5094690;28;19908;-55
2022/09/15 02:38:37;;;;;;;;;;;21.60;83.90;;;;;;5095027;28;19908;-53
2022/09/15 02:41:04;;;;;;;;;;;21.60;84.00;;;;;;5094261;28;19968;-57
2022/09/15 02:43:30;;;;;;;;;;;21.60;84.00;;;;;;5094493;28;19908;-54
2022/09/15 02:45:55;;;;;;;;;;;21.60;84.00;;;;;;5094196;28;19915;-54
2022/09/15 02:48:21;;;;;;;;;;;21.60;84.00;;;;;;5094792;28;20266;-57
2022/09/15 02:50:46;;;;;;;;;;;21.60;83.90;;;;;;5094384;28;19941;-57
2022/09/15 02:53:12;;;;;;;;;;;21.60;83.90;;;;;;5094093;28;20362;-55
2022/09/15 02:55:37;;;;;;;;;;;21.60;83.90;;;;;;5094495;28;20265;-56
2022/09/15 02:58:03;;;;;;;;;;;21.60;83.90;;;;;;5094379;28;19915;-57
2022/09/15 03:00:29;;;;;;;;;;;21.60;84.40;;;;;;5094361;28;19955;-57
2022/09/15 03:02:55;;;;;;;;;;;21.60;84.00;;;;;;5076023;28;19908;-55
2022/09/15 03:05:24;;;;;;;;;;;21.70;84.00;;;;;;5094086;28;20016;-54
2022/09/15 03:07:50;;;;;;;;;;;21.60;83.90;;;;;;5093624;28;19912;-56
2022/09/15 03:10:16;;;;;;;;;;;21.60;83.90;;;;;;5075649;28;19961;-58
2022/09/15 03:12:45;;;;;;;;;;;21.60;83.90;;;;;;5075442;28;19924;-57
2022/09/15 03:15:12;;;;;;;;;;;21.60;84.00;;;;;;5093688;28;19912;-54
2022/09/15 03:17:40;;;;;;;;;;;21.60;84.00;;;;;;5075865;28;19908;-52
2022/09/15 03:20:06;;;;;;;;;;;21.60;83.90;;;;;;5094149;28;19908;-55
2022/09/15 03:22:32;;;;;;;;;;;21.60;83.90;;;;;;5075934;28;20248;-58
2022/09/15 03:24:58;;;;;;;;;;;21.60;84.00;;;;;;5093989;28;19915;-56
2022/09/15 03:27:23;;;;;;;;;;;21.60;84.00;;;;;;5093616;28;19995;-55
2022/09/15 03:29:49;;;;;;;;;;;21.60;84.00;;;;;;5075926;28;19912;-54
2022/09/15 03:32:14;;;;;;;;;;;21.60;84.00;;;;;;5075810;28;19916;-54
2022/09/15 03:34:40;;;;;;;;;;;21.60;84.00;;;;;;5093878;28;19908;-54
2022/09/15 03:37:05;;;;;;;;;;;21.60;84.50;;;;;;5093372;28;19908;-55
2022/09/15 03:39:31;;;;;;;;;;;21.60;84.00;;;;;;5093662;28;19912;-56
2022/09/15 03:41:56;;;;;;;;;;;21.60;84.00;;;;;;5075416;28;19948;-53
2022/09/15 03:44:22;;;;;;;;;;;21.60;83.90;;;;;;5109602;28;19909;-53
2022/09/15 03:46:47;;;;;;;;;;;21.60;84.00;;;;;;5075701;28;19915;-57
2022/09/15 03:49:13;;;;;;;;;;;21.60;84.00;;;;;;5093434;28;20374;-54
2022/09/15 03:51:38;;;;;;;;;;;21.60;84.00;;;;;;5075698;28;19961;-56
2022/09/15 03:54:04;;;;;;;;;;;21.60;83.90;;;;;;5093501;28;20385;-57
2022/09/15 03:56:30;;;;;;;;;;;21.60;83.90;;;;;;5094056;28;19908;-55
2022/09/15 03:58:56;;;;;;;;;;;21.60;84.00;;;;;;5075595;28;19908;-55
2022/09/15 04:01:22;;;;;;;;;;;21.60;84.00;;;;;;5093329;28;19923;-56
2022/09/15 04:03:47;;;;;;;;;;;21.60;84.00;;;;;;5093334;28;19946;-56
2022/09/15 04:06:13;;;;;;;;;;;21.60;84.10;;;;;;5093348;28;20359;-58
2022/09/15 04:08:39;;;;;;;;;;;21.60;83.90;;;;;;5093568;28;19908;-53
2022/09/15 04:11:08;;;;;;;;;;;21.60;84.00;;;;;;5093314;28;19923;-57
2022/09/15 04:13:34;;;;;;;;;;;21.70;84.00;;;;;;5093271;28;19908;-57
2022/09/15 04:16:00;;;;;;;;;;;21.60;83.90;;;;;;5093422;28;20331;-56
2022/09/15 04:18:26;;;;;;;;;;;21.60;83.90;;;;;;5093639;28;20049;-56
2022/09/15 04:20:52;;;;;;;;;;;21.60;83.90;;;;;;5079021;28;19954;-56
2022/09/15 04:23:17;;;;;;;;;;;21.60;84.00;;;;;;5096796;28;19935;-55
2022/09/15 04:25:43;;;;;;;;;;;21.60;84.00;;;;;;5096617;28;19909;-58
2022/09/15 04:28:08;;;;;;;;;;;21.60;84.00;;;;;;5097080;28;19912;-58
2022/09/15 04:30:35;;;;;;;;;;;21.60;83.90;;;;;;5096798;28;19912;-57
2022/09/15 04:33:01;;;;;;;;;;;21.60;84.00;;;;;;5096834;28;19919;-54
2022/09/15 04:35:27;;;;;;;;;;;21.60;84.00;;;;;;5096799;28;19908;-55
2022/09/15 04:37:53;;;;;;;;;;;21.60;84.00;;;;;;5096319;28;20325;-55
2022/09/15 04:40:19;;;;;;;;;;;21.60;84.00;;;;;;5097001;28;19908;-55
2022/09/15 04:42:45;;;;;;;;;;;21.60;84.00;;;;;;5096772;28;19908;-55
2022/09/15 04:45:11;;;;;;;;;;;21.60;84.10;;;;;;5096281;28;19939;-58
2022/09/15 04:47:36;;;;;;;;;;;21.60;84.00;;;;;;5096849;28;19915;-55
2022/09/15 04:50:02;;;;;;;;;;;21.60;84.10;;;;;;5078229;28;19954;-57
2022/09/15 04:52:28;;;;;;;;;;;21.60;84.10;;;;;;5078181;28;19919;-54
2022/09/15 04:54:53;;;;;;;;;;;21.70;84.10;;;;;;5096230;28;19909;-57
2022/09/15 04:57:18;;;;;;;;;;;21.60;84.10;;;;;;5096538;28;19965;-56
2022/09/15 04:59:44;;;;;;;;;;;21.60;84.60;;;;;;5096186;28;19909;-55
2022/09/15 05:02:09;;;;;;;;;;;21.60;84.10;;;;;;5095765;28;19908;-55
2022/09/15 05:04:35;;;;;;;;;;;21.60;84.10;;;;;;5077635;28;20020;-56
2022/09/15 05:07:01;;;;;;;;;;;21.60;84.10;;;;;;5096179;28;19908;-57
2022/09/15 05:09:28;;;;;;;;;;;21.60;84.10;;;;;;5095707;28;19955;-57
2022/09/15 05:11:53;;;;;;;;;;;21.60;84.00;;;;;;5095781;28;19918;-56
2022/09/15 05:14:19;;;;;;;;;;;21.60;84.60;;;;;;5096150;28;20282;-56
2022/09/15 05:16:44;;;;;;;;;;;21.60;84.10;;;;;;5077591;28;19908;-55
2022/09/15 05:19:10;;;;;;;;;;;21.60;84.10;;;;;;5095694;28;19928;-54
2022/09/15 05:21:36;;;;;;;;;;;21.60;84.10;;;;;;5077640;28;20313;-57
2022/09/15 05:24:01;;;;;;;;;;;21.60;84.00;;;;;;5095632;28;19913;-57
2022/09/15 05:26:27;;;;;;;;;;;21.60;84.10;;;;;;5095308;28;19908;-57
2022/09/15 05:28:53;;;;;;;;;;;21.60;84.00;;;;;;5095365;28;19995;-56
2022/09/15 05:31:21;;;;;;;;;;;21.60;84.10;;;;;;5077222;28;19966;-55
2022/09/15 05:33:48;;;;;;;;;;;21.60;84.10;;;;;;5095590;28;19908;-57
2022/09/15 05:36:14;;;;;;;;;;;21.60;84.10;;;;;;5095773;28;19908;-57
2022/09/15 05:38:40;;;;;;;;;;;21.60;84.20;;;;;;5095509;28;19915;-56
2022/09/15 05:41:06;;;;;;;;;;;21.60;84.20;;;;;;5095319;28;19908;-56
2022/09/15 05:43:33;;;;;;;;;;;21.60;84.10;;;;;;5095185;28;20002;-57
2022/09/15 05:45:58;;;;;;;;;;;21.60;84.10;;;;;;5095057;28;19915;-55
2022/09/15 05:48:24;;;;;;;;;;;21.60;84.20;;;;;;5095133;28;19908;-55
2022/09/15 05:50:51;;;;;;;;;;;21.60;84.10;;;;;;5094854;28;19912;-57
2022/09/15 05:53:17;;;;;;;;;;;21.60;84.10;;;;;;5095074;28;19912;-54
2022/09/15 05:55:43;;;;;;;;;;;21.60;84.10;;;;;;5094931;28;19950;-54
2022/09/15 05:58:08;;;;;;;;;;;21.60;84.10;;;;;;5094823;28;19908;-53
2022/09/15 06:00:34;;;;;;;;;;;21.60;84.10;;;;;;5094617;28;19908;-56
2022/09/15 06:02:59;;;;;;;;;;;21.60;84.20;;;;;;5094639;28;19908;-55
2022/09/15 06:05:25;;;;;;;;;;;21.70;84.20;;;;;;5094824;28;20282;-55
2022/09/15 06:07:52;;;;;;;;;;;21.60;84.20;;;;;;5094652;28;20001;-55
2022/09/15 06:10:17;;;;;;;;;;;21.60;84.20;;;;;;5094437;28;19912;-57
2022/09/15 06:12:42;;;;;;;;;;;21.60;84.20;;;;;;5094169;28;20024;-58
2022/09/15 06:15:08;;;;;;;;;;;21.60;84.10;;;;;;5094228;28;19908;-55
2022/09/15 06:17:34;;;;;;;;;;;21.60;84.20;;;;;;5094530;28;20339;-56
2022/09/15 06:19:59;;;;;;;;;;;21.60;84.20;;;;;;5094414;28;20282;-56
2022/09/15 06:22:25;;;;;;;;;;;21.60;84.20;;;;;;5094438;28;19988;-56
2022/09/15 06:24:51;;;;;;;;;;;21.70;84.20;;;;;;5094714;28;20350;-56
2022/09/15 06:27:17;;;;;;;;;;;21.60;84.30;;;;;;5094111;28;19915;-58
2022/09/15 06:29:42;;;;;;;;;;;21.60;84.20;;;;;;5093669;28;19913;-57
2022/09/15 06:32:08;;;;;;;;;;;21.60;84.20;;;;;;5094080;28;20393;-56
2022/09/15 06:34:33;;;;;;;;;;;21.60;84.20;;;;;;5093766;28;19909;-57
2022/09/15 06:36:59;;;;;;;;;;;21.60;84.20;;;;;;5094342;28;19958;-56
2022/09/15 06:39:25;;;;;;;;;;;21.60;84.20;;;;;;5094191;28;19908;-55
2022/09/15 06:41:50;;;;;;;;;;;21.60;84.30;;;;;;5093508;28;19973;-56
2022/09/15 06:44:16;;;;;;;;;;;21.60;84.20;;;;;;5094217;28;20270;-56
2022/09/15 06:46:41;;;;;;;;;;;21.60;84.20;;;;;;5094472;28;20003;-58
2022/09/15 06:49:07;;;;;;;;;;;21.60;84.20;;;;;;5094005;28;19919;-56
2022/09/15 06:51:34;;;;;;;;;;;21.60;84.20;;;;;;5094260;28;19912;-57
2022/09/15 06:54:00;;;;;;;;;;;21.60;84.30;;;;;;5094156;28;19912;-53
2022/09/15 06:56:26;;;;;;;;;;;21.60;84.20;;;;;;5093728;28;20377;-57
2022/09/15 06:58:52;;;;;;;;;;;21.60;84.20;;;;;;5075890;28;19912;-57
2022/09/15 07:01:19;;;;;;;;;;;21.60;84.20;;;;;;5094019;28;20389;-55
2022/09/15 07:03:45;;;;;;;;;;;21.60;84.20;;;;;;5075302;28;19920;-57
2022/09/15 07:06:13;;;;;;;;;;;21.60;84.30;;;;;;5094055;28;19988;-55
2022/09/15 07:08:39;;;;;;;;;;;21.70;84.30;;;;;;5093862;28;19908;-57
2022/09/15 07:11:05;;;;;;;;;;;21.70;84.30;;;;;;5093466;28;19916;-58
2022/09/15 07:13:30;;;;;;;;;;;21.60;84.20;;;;;;5093568;28;19947;-55
2022/09/15 07:15:57;;;;;;;;;;;21.70;84.30;;;;;;5093746;28;19958;-55
2022/09/15 07:18:23;;;;;;;;;;;21.60;84.20;;;;;;5075660;28;20006;-56
2022/09/15 07:20:49;;;;;;;;;;;21.60;84.20;;;;;;5075662;28;19951;-58
2022/09/15 07:23:14;;;;;;;;;;;21.60;84.30;;;;;;5093974;28;19954;-56
2022/09/15 07:25:44;;;;;;;;;;;21.60;84.20;;;;;;5093788;28;19908;-56
2022/09/15 07:28:10;;;;;;;;;;;21.60;84.20;;;;;;5093853;28;19908;-56
2022/09/15 07:30:35;;;;;;;;;;;21.70;84.30;;;;;;5093705;28;19924;-57
2022/09/15 07:33:01;;;;;;;;;;;21.70;84.20;;;;;;5093680;28;20144;-54
2022/09/15 07:35:26;;;;;;;;;;;21.70;84.30;;;;;;5093422;28;19914;-55
2022/09/15 07:37:52;;;;;;;;;;;21.60;84.20;;;;;;5093635;28;20016;-57
2022/09/15 07:40:17;;;;;;;;;;;21.60;84.20;;;;;;5093699;28;19912;-54
2022/09/15 07:42:43;;;;;;;;;;;21.60;84.20;;;;;;5093609;28;20269;-53
2022/09/15 07:45:09;;;;;;;;;;;21.60;84.10;;;;;;5075610;28;20006;-56
2022/09/15 07:47:35;;;;;;;;;;;21.70;84.20;;;;;;5093621;28;19912;-55
2022/09/15 07:50:00;;;;;;;;;;;21.70;84.20;;;;;;5093276;28;19919;-57
2022/09/15 07:52:26;;;;;;;;;;;21.70;84.10;;;;;;5093522;28;19925;-55
2022/09/15 07:54:51;;;;;;;;;;;21.70;84.10;;;;;;5095718;28;19919;-56
2022/09/15 07:57:17;;;;;;;;;;;21.70;84.20;;;;;;5097625;28;19919;-53
2022/09/15 07:59:42;;;;;;;;;;;21.70;84.10;;;;;;5097445;28;20357;-57
2022/09/15 08:02:13;;;;;;;;;;;21.70;84.30;;;;;;5097427;28;20252;-53
2022/09/15 08:04:39;;;;;;;;;;;21.70;84.10;;;;;;5097578;28;20283;-57
2022/09/15 08:07:04;;;;;;;;;;;21.70;84.20;;;;;;5097019;28;19908;-56
2022/09/15 08:09:30;;;;;;;;;;;21.70;84.20;;;;;;5097180;28;19919;-53
2022/09/15 08:11:55;;;;;;;;;;;21.70;84.20;;;;;;5097460;28;19912;-57
2022/09/15 08:14:21;;;;;;;;;;;21.70;84.10;;;;;;5096815;28;19912;-57
2022/09/15 08:16:46;;;;;;;;;;;21.70;84.10;;;;;;5096530;28;19920;-56
2022/09/15 08:19:12;;;;;;;;;;;21.70;84.10;;;;;;5096681;28;20282;-57
2022/09/15 08:21:37;;;;;;;;;;;21.70;84.10;;;;;;5078744;28;20015;-57
2022/09/15 08:24:03;;;;;;;;;;;21.70;84.20;;;;;;5096664;28;19914;-55
2022/09/15 08:26:28;;;;;;;;;;;21.70;84.20;;;;;;5078648;28;19912;-55
2022/09/15 08:28:54;;;;;;;;;;;21.70;84.20;;;;;;5096665;28;19908;-56
2022/09/15 08:31:19;;;;;;;;;;;21.70;84.10;;;;;;5096983;28;19959;-56
2022/09/15 08:33:49;;;;;;;;;;;21.70;84.20;;;;;;5097190;28;20251;-56
2022/09/15 08:36:14;;;;;;;;;;;21.70;84.20;;;;;;5096500;28;19908;-56
2022/09/15 08:38:41;;;;;;;;;;;21.70;84.20;;;;;;5096615;28;20002;-57
2022/09/15 08:41:13;;;;;;;;;;;21.70;84.20;;;;;;5096775;28;19916;-57
2022/09/15 08:43:43;;;;;;;;;;;21.70;84.20;;;;;;5096502;28;20412;-57
2022/09/15 08:46:12;;;;;;;;;;;21.70;84.20;;;;;;5096758;28;19908;-57
2022/09/15 08:48:44;;;;;;;;;;;21.70;84.30;;;;;;5078373;28;19908;-56
2022/09/15 08:51:14;;;;;;;;;;;21.70;84.10;;;;;;5096245;28;19912;-56
2022/09/15 08:53:45;;;;;;;;;;;21.70;84.20;;;;;;5096055;28;19919;-57
2022/09/15 08:56:16;;;;;;;;;;;21.70;84.20;;;;;;5095952;28;19910;-54
2022/09/15 08:58:42;;;;;;;;;;;21.70;84.20;;;;;;5095727;28;19923;-57
2022/09/15 09:01:07;;;;;;;;;;;21.70;84.20;;;;;;5095628;28;20377;-51
2022/09/15 09:03:38;;;;;;;;;;;21.70;84.20;;;;;;5096175;28;19928;-56
2022/09/15 09:06:16;;;;;;;;;;;21.70;84.20;;;;;;5095409;28;19908;-56
2022/09/15 09:08:41;;;;;;;;;;;21.70;84.20;;;;;;5096488;28;19912;-57
2022/09/15 09:11:15;;;;;;;;;;;21.70;84.30;;;;;;5095526;28;19973;-57
2022/09/15 09:13:46;;;;;;;;;;;21.70;84.20;;;;;;5096093;28;19977;-55
2022/09/15 09:16:23;;;;;;;;;;;21.70;84.20;;;;;;5077510;28;19913;-54
2022/09/15 09:19:14;;;;;;;;;;;21.70;84.20;;;;;;5095620;28;19970;-57
2022/09/15 09:21:46;;;;;;;;;;;21.70;84.30;;;;;;5095824;28;20016;-54
2022/09/15 09:24:38;;;;;;;;;;;21.70;84.20;;;;;;5077560;28;19934;-58
2022/09/15 09:27:04;;;;;;;;;;;21.70;84.20;;;;;;5092383;28;19912;-55
2022/09/15 09:29:35;;;;;;;;;;;21.70;84.30;;;;;;5095173;28;20272;-57
2022/09/15 09:32:01;;;;;;;;;;;21.70;84.30;;;;;;5095440;28;20010;-57
2022/09/15 09:34:35;;;;;;;;;;;21.70;84.20;;;;;;5095259;28;20354;-56
2022/09/15 09:37:08;;;;;;;;;;;21.70;84.30;;;;;;5095137;28;19908;-56
2022/09/15 09:39:34;;;;;;;;;;;21.70;84.20;;;;;;5077217;28;19908;-55
2022/09/15 09:42:01;;;;;;;;;;;21.70;84.30;;;;;;5095495;28;19916;-57
2022/09/15 09:44:30;;;;;;;;;;;21.70;84.30;;;;;;5095144;28;19908;-57
2022/09/15 09:46:57;;;;;;;;;;;21.70;84.20;;;;;;5094962;28;19951;-56
2022/09/15 09:49:23;;;;;;;;;;;21.70;84.20;;;;;;5094983;28;19973;-55
2022/09/15 09:51:50;;;;;;;;;;;21.70;84.20;;;;;;5094956;28;20328;-56
2022/09/15 09:54:16;;;;;;;;;;;21.70;84.20;;;;;;5094710;28;19957;-57
2022/09/15 09:56:42;;;;;;;;;;;21.70;84.20;;;;;;5076844;28;20278;-55
2022/09/15 09:59:27;;;;;;;;;;;21.70;84.20;;;;;;5095107;28;19917;-54
2022/09/15 10:02:10;;;;;;;;;;;21.70;84.20;;;;;;5095015;28;20292;-55
2022/09/15 10:04:36;;;;;;;;;;;21.70;84.30;;;;;;5094989;28;19957;-53
2022/09/15 10:07:02;;;;;;;;;;;21.70;84.20;;;;;;5095718;28;19916;-55
2022/09/15 10:09:28;;;;;;;;;;;21.70;84.30;;;;;;5094532;28;19935;-54
2022/09/15 10:11:56;;;;;;;;;;;21.70;84.30;;;;;;5094425;28;20000;-53
2022/09/15 10:14:25;;;;;;;;;;;21.80;84.30;;;;;;5094101;28;20227;-56
2022/09/15 10:16:58;;;;;;;;;;;21.70;84.20;;;;;;5093464;28;19915;-53
2022/09/15 10:19:23;;;;;;;;;;;21.70;84.30;;;;;;5094895;28;19908;-54
2022/09/15 10:21:49;;;;;;;;;;;21.70;84.30;;;;;;5094838;28;20305;-57
2022/09/15 10:24:30;;;;;;;;;;;21.80;84.30;;;;;;5094247;28;19947;-57
2022/09/15 10:27:06;;;;;;;;;;;21.80;84.30;;;;;;5094151;28;19908;-56
2022/09/15 10:29:38;;;;;;;;;;;21.70;84.30;;;;;;5094310;28;19912;-56
2022/09/15 10:32:36;;;;;;;;;;;21.80;84.30;;;;;;5094165;28;20266;-57
2022/09/15 10:35:12;;;;;;;;;;;21.80;84.40;;;;;;5059955;28;19912;-56
2022/09/15 10:37:56;;;;;;;;;;;21.80;84.40;;;;;;5094276;28;19908;-55
2022/09/15 10:40:28;;;;;;;;;;;21.80;84.40;;;;;;5076007;28;20029;-56
2022/09/15 10:43:12;;;;;;;;;;;21.80;84.30;;;;;;5093987;28;19909;-57
2022/09/15 10:45:38;;;;;;;;;;;21.80;84.30;;;;;;5094136;28;19915;-54
2022/09/15 10:48:13;;;;;;;;;;;21.80;84.30;;;;;;5093972;28;20416;-53
2022/09/15 10:50:46;;;;;;;;;;;21.80;84.30;;;;;;5094376;28;19912;-56
2022/09/15 10:53:15;;;;;;;;;;;21.80;84.40;;;;;;5094444;28;19923;-53
2022/09/15 10:55:48;;;;;;;;;;;21.80;84.30;;;;;;5094242;28;19991;-57
2022/09/15 10:58:14;;;;;;;;;;;21.80;84.40;;;;;;5093649;28;19915;-57
2022/09/15 11:00:51;;;;;;;;;;;21.80;84.30;;;;;;5093770;28;19909;-57
2022/09/15 11:03:20;;;;;;;;;;;21.80;84.30;;;;;;5093557;28;19920;-56
2022/09/15 11:06:08;;;;;;;;;;;21.80;84.30;;;;;;5093658;28;19963;-54
2022/09/15 11:08:52;;;;;;;;;;;21.80;84.30;;;;;;5093987;28;20011;-55
2022/09/15 11:11:22;;;;;;;;;;;21.80;84.30;;;;;;5093606;28;19998;-56
2022/09/15 11:14:06;;;;;;;;;;;21.80;84.30;;;;;;5093872;28;19999;-55
2022/09/15 11:16:32;;;;;;;;;;;21.80;84.30;;;;;;5093889;28;20027;-53
2022/09/15 11:19:05;;;;;;;;;;;21.80;84.30;;;;;;5075608;28;20366;-56
2022/09/15 11:21:38;;;;;;;;;;;21.80;84.30;;;;;;5093348;28;19909;-56
2022/09/15 11:24:21;;;;;;;;;;;21.80;84.30;;;;;;5093551;28;20318;-56
2022/09/15 11:26:50;;;;;;;;;;;21.80;84.30;;;;;;5075439;28;19916;-55
2022/09/15 11:29:18;;;;;;;;;;;21.80;84.30;;;;;;5097302;28;19908;-54
2022/09/15 11:31:48;;;;;;;;;;;21.80;84.30;;;;;;5097376;28;19912;-55
2022/09/15 11:34:19;;;;;;;;;;;21.80;84.40;;;;;;5097816;28;19912;-58
2022/09/15 11:36:51;;;;;;;;;;;21.80;84.40;;;;;;5097824;28;19961;-56
2022/09/15 11:39:24;;;;;;;;;;;21.80;84.40;;;;;;5079169;28;19970;-57
2022/09/15 11:42:12;;;;;;;;;;;21.80;84.40;;;;;;5097493;28;19962;-55
2022/09/15 11:44:42;;;;;;;;;;;21.80;84.40;;;;;;5097680;28;20191;-57
2022/09/15 11:47:15;;;;;;;;;;;21.80;84.40;;;;;;5097518;28;19908;-54
2022/09/15 11:49:49;;;;;;;;;;;21.80;84.40;;;;;;5097094;28;19974;-55
2022/09/15 11:52:24;;;;;;;;;;;21.80;84.40;;;;;;5097012;28;19912;-55
2022/09/15 11:54:59;;;;;;;;;;;21.80;84.40;;;;;;5097140;28;19931;-57
2022/09/15 11:57:27;;;;;;;;;;;21.80;84.40;;;;;;5097059;28;20450;-54
2022/09/15 11:59:55;;;;;;;;;;;21.80;84.40;;;;;;5097015;28;19912;-54
2022/09/15 12:02:33;;;;;;;;;;;21.80;84.40;;;;;;5097202;28;19916;-55
2022/09/15 12:05:07;;;;;;;;;;;21.90;84.40;;;;;;5097288;28;19920;-58
2022/09/15 12:07:47;;;;;;;;;;;21.80;84.40;;;;;;5097007;28;19909;-57
2022/09/15 12:10:14;;;;;;;;;;;21.80;84.30;;;;;;5096823;28;19916;-55
2022/09/15 12:12:42;;;;;;;;;;;21.80;84.40;;;;;;5096821;28;19912;-55
2022/09/15 12:15:12;;;;;;;;;;;21.80;84.40;;;;;;5096625;28;19908;-55
2022/09/15 12:17:42;;;;;;;;;;;21.80;84.40;;;;;;5096961;28;19961;-57
2022/09/15 12:20:16;;;;;;;;;;;21.80;84.40;;;;;;5096811;28;19908;-56
2022/09/15 12:22:45;;;;;;;;;;;21.90;84.40;;;;;;5096814;28;19997;-58
2022/09/15 12:25:21;;;;;;;;;;;21.80;84.40;;;;;;5096659;28;19914;-55
2022/09/15 12:28:06;;;;;;;;;;;21.80;84.40;;;;;;5096765;28;20370;-55
2022/09/15 12:30:39;;;;;;;;;;;21.80;84.40;;;;;;5078439;28;20077;-56
2022/09/15 12:33:23;;;;;;;;;;;21.80;84.40;;;;;;5096470;28;20015;-57
2022/09/15 12:35:48;;;;;;;;;;;21.80;84.40;;;;;;5078222;28;20002;-58
2022/09/15 12:38:14;;;;;;;;;;;21.80;84.40;;;;;;5096302;28;19947;-58
2022/09/15 12:40:40;;;;;;;;;;;21.80;84.40;;;;;;5095639;28;19908;-58
2022/09/15 12:43:12;;;;;;;;;;;21.80;84.50;;;;;;5096155;28;19908;-57
2022/09/15 12:45:38;;;;;;;;;;;21.90;84.50;;;;;;5096503;28;19908;-56
2022/09/15 12:48:19;;;;;;;;;;;21.80;84.40;;;;;;5096325;28;19916;-57
2022/09/15 12:50:55;;;;;;;;;;;21.80;84.40;;;;;;5078347;28;20252;-54
2022/09/15 12:53:28;;;;;;;;;;;21.80;84.40;;;;;;5096210;28;19965;-54
2022/09/15 12:55:55;;;;;;;;;;;21.90;84.50;;;;;;5096048;28;19908;-51
2022/09/15 12:58:32;;;;;;;;;;;21.80;84.40;;;;;;5096081;28;20260;-57
2022/09/15 13:01:20;;;;;;;;;;;21.80;84.40;;;;;;5077965;28;19908;-55
2022/09/15 13:03:47;;;;;;;;;;;21.90;84.50;;;;;;5087659;28;20410;-55
2022/09/15 13:06:20;;;;;;;;;;;21.90;84.50;;;;;;5078228;28;19931;-56
2022/09/15 13:08:45;;;;;;;;;;;21.90;84.50;;;;;;5096013;28;19914;-57
2022/09/15 13:11:13;;;;;;;;;;;21.90;84.50;;;;;;5077894;28;19916;-53
2022/09/15 13:13:49;;;;;;;;;;;21.90;84.50;;;;;;5095348;28;19938;-51
2022/09/15 13:16:25;;;;;;;;;;;21.90;84.50;;;;;;5077459;28;20291;-52
2022/09/15 13:18:57;;;;;;;;;;;21.90;84.50;;;;;;5095832;28;19912;-58
2022/09/15 13:21:23;;;;;;;;;;;21.90;84.50;;;;;;5095401;28;20271;-54
2022/09/15 13:23:51;;;;;;;;;;;21.90;84.50;;;;;;5077467;28;19908;-57
2022/09/15 13:26:21;;;;;;;;;;;21.90;84.60;;;;;;5077394;28;19958;-55
2022/09/15 13:28:47;;;;;;;;;;;21.90;84.60;;;;;;5077078;28;19912;-56
2022/09/15 13:31:33;;;;;;;;;;;21.90;84.60;;;;;;5095450;28;20336;-54
2022/09/15 13:34:11;;;;;;;;;;;21.90;84.60;;;;;;5095708;28;19912;-56
2022/09/15 13:36:51;;;;;;;;;;;21.90;84.60;;;;;;5095249;28;19908;-56
2022/09/15 13:39:23;;;;;;;;;;;21.90;84.60;;;;;;5095605;28;19909;-56
2022/09/15 13:42:09;;;;;;;;;;;21.90;84.60;;;;;;5095783;28;19915;-54
2022/09/15 13:45:00;;;;;;;;;;;21.90;84.60;;;;;;5095515;28;19976;-57
2022/09/15 13:47:40;;;;;;;;;;;21.90;84.60;;;;;;5094998;28;19915;-56
2022/09/15 13:50:12;;;;;;;;;;;21.90;84.60;;;;;;5095446;28;19912;-58
2022/09/15 13:52:52;;;;;;;;;;;21.90;84.60;;;;;;5095252;28;19912;-54
2022/09/15 13:55:25;;;;;;;;;;;21.90;84.60;;;;;;5094735;28;19924;-58
2022/09/15 13:57:52;;;;;;;;;;;21.90;84.60;;;;;;5095101;28;19908;-53
2022/09/15 14:00:19;;;;;;;;;;;21.90;84.60;;;;;;5094922;28;19915;-56
2022/09/15 14:02:46;;;;;;;;;;;21.90;84.60;;;;;;5094603;28;20381;-55
2022/09/15 14:05:13;;;;;;;;;;;21.90;84.60;;;;;;5094958;28;19946;-54
2022/09/15 14:07:38;;;;;;;;;;;21.90;84.60;;;;;;5076571;28;19962;-56
2022/09/15 14:10:05;;;;;;;;;;;21.90;84.60;;;;;;5094909;28;19916;-56
2022/09/15 14:12:34;;;;;;;;;;;21.90;84.60;;;;;;5094278;28;19912;-54
2022/09/15 14:15:04;;;;;;;;;;;21.90;84.60;;;;;;5094968;28;19958;-55
2022/09/15 14:17:30;;;;;;;;;;;21.90;84.60;;;;;;5094098;28;20374;-55
2022/09/15 14:19:57;;;;;;;;;;;21.90;84.60;;;;;;5094841;28;20350;-55
2022/09/15 14:22:27;;;;;;;;;;;21.90;84.60;;;;;;5076110;28;19919;-56
2022/09/15 14:24:53;;;;;;;;;;;21.90;84.60;;;;;;5094420;28;20031;-57
2022/09/15 14:27:24;;;;;;;;;;;21.90;84.60;;;;;;5094742;28;20359;-53